Thunder radar more information blitzortung!


Radar de pluja more information rain snow radar


Visita la nostra xarxa de llocs de meteo:

Template documentation
and downloads

And another site



No particular awareness of the weather is required.    There are no Weather-warnings

Pagina Historial Weather Underground text

Diari Resum May 26, 2016 Unitats:  Mètric    Imperial   Tant
« Previous Dia
SegĂźent Dia »
Diari Setmana Mensual Anual Personalitzada
  Maxima: Minima: Media:
Temperatura: -17.8 °C -10.2 °C -6.7 °C
Punt de rosada: -17.8 °C -12.6 °C -11.6 °C
Humitat: Humidity % 39 % 58 %
Wind Speed: 0 km/h 0 km/h 12.2 km/h
RĂ fegues de vent: 0 km/h - -
Vent:- - East
Pression baro: 0 hPa 34256.2 hPa -
Precipitacions: 0 mm    
Historical Graphs
 
 
Dades de taula per May 26, 2016
Temps Temperatura Punt de rosada Pression baro Vent Wind Speed RĂ fegues de vent Humitat Rainfall Rate (Hourly)
-17.8 °C -17.8 °C 0 hPa Calm     Humidity % 0 mm
00:04 -7.9 °C -11.2 °C 34327.3 hPa ESE 8 km/h 8 km/h 69 % 0 mm
00:05 -8.7 °C -10.6 °C 34327.3 hPa NE 5.1 km/h 7.7 km/h 80 % 0 mm
00:09 -8 °C -11.2 °C 34327.3 hPa ESE 8.5 km/h 8.5 km/h 69 % 0 mm
00:25 -8.8 °C -10.6 °C 34293.4 hPa NE 5.1 km/h 7.7 km/h 81 % 0 mm
00:35 -8.8 °C -10.7 °C 34327.3 hPa NE 5.1 km/h 7.7 km/h 81 % 0 mm
00:45 -8.9 °C -10.7 °C 34327.3 hPa NE 2.6 km/h 5.1 km/h 81 % 0 mm
00:55 -8.9 °C -10.7 °C 34327.3 hPa NE 2.6 km/h 5.1 km/h 81 % 0 mm
01:05 -9 °C -10.8 °C 34293.4 hPa NE 2.6 km/h 5.1 km/h 81 % 0 mm
01:15 -9.1 °C -10.9 °C 34293.4 hPa NE 2.6 km/h 5.1 km/h 81 % 0 mm
01:25 -9.1 °C -10.8 °C 34293.4 hPa Calm   2.6 km/h 82 % 0 mm
01:35 -9.2 °C -10.9 °C 34256.2 hPa Calm   2.6 km/h 82 % 0 mm
01:45 -9.2 °C -10.9 °C 34256.2 hPa NE 7.7 km/h 10.3 km/h 81 % 0 mm
01:55 -9.2 °C -10.9 °C 34293.4 hPa NE 5.1 km/h 15.6 km/h 81 % 0 mm
02:05 -9.2 °C -10.9 °C 34293.4 hPa NNE 7.7 km/h 12.9 km/h 81 % 0 mm
02:15 -9.1 °C -10.9 °C 34293.4 hPa NNE 7.7 km/h 12.9 km/h 81 % 0 mm
02:25 -9.1 °C -10.9 °C 34293.4 hPa NNE 7.7 km/h 15.6 km/h 81 % 0 mm
02:35 -8.9 °C -10.7 °C 34327.3 hPa NE 12.9 km/h 15.6 km/h 81 % 0 mm
02:45 -8.9 °C -10.7 °C 34327.3 hPa NE 12.9 km/h 15.6 km/h 81 % 0 mm
02:55 -8.8 °C -10.7 °C 34327.3 hPa NE 5.1 km/h 7.7 km/h 80 % 0 mm
03:05 -8.9 °C -10.8 °C 34327.3 hPa NNE 7.7 km/h 15.6 km/h 80 % 0 mm
03:15 -8.8 °C -10.7 °C 34327.3 hPa NE 5.1 km/h 7.7 km/h 80 % 0 mm
03:25 -8.7 °C -10.6 °C 34327.3 hPa NE 7.7 km/h 10.3 km/h 80 % 0 mm
03:35 -8.7 °C -10.7 °C 34293.4 hPa NNE 7.7 km/h 12.9 km/h 80 % 0 mm
03:45 -8.6 °C -10.6 °C 34293.4 hPa NE 7.7 km/h 15.6 km/h 79 % 0 mm
03:55 -8.4 °C -10.4 °C 34327.3 hPa NE 5.1 km/h 7.7 km/h 79 % 0 mm
04:05 -8.3 °C -10.5 °C 34327.3 hPa ENE 5.1 km/h 7.7 km/h 77 % 0 mm
04:15 -8.1 °C -10.4 °C 34327.3 hPa East 12.9 km/h 12.9 km/h 76 % 0 mm
04:25 -7.8 °C -10.3 °C 34327.3 hPa East 7.7 km/h 10.3 km/h 75 % 0 mm
04:35 -7.6 °C -10.2 °C 34327.3 hPa Calm   10.3 km/h 74 % 0 mm
04:45 -7.2 °C -10.1 °C 34327.3 hPa East 7.7 km/h 12.9 km/h 72 % 0 mm
04:55 -7.1 °C -10.1 °C 34327.3 hPa ENE 12.9 km/h 18.2 km/h 71 % 0 mm
05:05 -6.9 °C -9.9 °C 34327.3 hPa ENE 5.1 km/h 7.7 km/h 71 % 0 mm
05:15 -6.6 °C -9.9 °C 34327.3 hPa ENE 7.7 km/h 10.3 km/h 69 % 0 mm
05:25 -6.3 °C -9.9 °C 34293.4 hPa East 7.7 km/h 15.6 km/h 66 % 0 mm
05:35 -6.2 °C -10.2 °C 34293.4 hPa East 12.9 km/h 15.6 km/h 64 % 0 mm
05:45 -6.1 °C -10.3 °C 34293.4 hPa East 12.9 km/h 23.3 km/h 62 % 0 mm
05:55 -5.6 °C -10.1 °C 34327.3 hPa ESE 7.7 km/h 15.6 km/h 60 % 0 mm
06:05 -6.1 °C -10.4 °C 34327.3 hPa ESE 7.7 km/h 15.6 km/h 61 % 0 mm
06:15 -5.9 °C -10.2 °C 34327.3 hPa East 12.9 km/h 15.6 km/h 61 % 0 mm
06:25 -6.2 °C -10.4 °C 34327.3 hPa ESE 7.7 km/h 15.6 km/h 62 % 0 mm
06:35 -5.9 °C -10.4 °C 34327.3 hPa ESE 5.1 km/h 23.3 km/h 60 % 0 mm
06:45 -5.8 °C -10.4 °C 34327.3 hPa ESE 7.7 km/h 15.6 km/h 59 % 0 mm
06:55 -5.8 °C -10.4 °C 34327.3 hPa ESE 18.2 km/h 23.3 km/h 59 % 0 mm
07:05 -5.6 °C -10.5 °C 34327.3 hPa ESE 15.6 km/h 15.6 km/h 57 % 0 mm
07:15 -5.2 °C -10.3 °C 34327.3 hPa ESE 7.7 km/h 20.8 km/h 56 % 0 mm
07:25 -5.3 °C -10.8 °C 34293.4 hPa ESE 20.8 km/h 25.9 km/h 54 % 0 mm
07:35 -5.4 °C -10.9 °C 34293.4 hPa ESE 18.2 km/h 25.9 km/h 54 % 0 mm
07:45 -5.4 °C -10.9 °C 34293.4 hPa ESE 12.9 km/h 20.8 km/h 54 % 0 mm
07:55 -5.3 °C -10.9 °C 34327.3 hPa ESE 18.2 km/h 38.8 km/h 53 % 0 mm
08:05 -4.9 °C -10.8 °C 34327.3 hPa SE 15.6 km/h 25.9 km/h 51 % 0 mm
08:15 -4.7 °C -10.6 °C 34327.3 hPa SE 7.7 km/h 15.6 km/h 51 % 0 mm
08:25 -4.7 °C -10.8 °C 34327.3 hPa ESE 15.6 km/h 20.8 km/h 50 % 0 mm
08:35 -5 °C -11.3 °C 34361.1 hPa ESE 15.6 km/h 28.5 km/h 49 % 0 mm
13:38 -4.9 °C -11.2 °C 34361.1 hPa NE 15 km/h 15 km/h 49 % 0 mm
13:43 -4.7 °C -11 °C 34361.1 hPa ENE 23.8 km/h 23.8 km/h 49 % 0 mm
13:48 -4.8 °C -11.1 °C 34361.1 hPa East 9 km/h 9.3 km/h 49 % 0 mm
13:53 -4.8 °C -11.1 °C 34361.1 hPa ESE 32.8 km/h 32.8 km/h 49 % 0 mm
13:58 -4.9 °C -11.2 °C 34361.1 hPa ESE 25.9 km/h 25.9 km/h 49 % 0 mm
14:03 -4.8 °C -11.3 °C 34361.1 hPa ESE 29.8 km/h 29.8 km/h 48 % 0 mm
14:08 -4.5 °C -11 °C 34361.1 hPa ESE 16.6 km/h 16.6 km/h 48 % 0 mm
14:13 -4.3 °C -10.8 °C 34361.1 hPa ESE 17.9 km/h 17.9 km/h 48 % 0 mm
14:18 -4.3 °C -11 °C 34361.1 hPa ENE 23.8 km/h 23.8 km/h 47 % 0 mm
14:23 -4.2 °C -10.9 °C 34361.1 hPa ENE 16.6 km/h 16.6 km/h 47 % 0 mm
14:28 -4.2 °C -10.9 °C 34361.1 hPa SSE 9 km/h 9 km/h 47 % 0 mm
14:33 -4.4 °C -11.2 °C 34361.1 hPa NNE 15 km/h 15 km/h 46 % 0 mm
14:38 -4.4 °C -11.5 °C 34327.3 hPa NNE 15 km/h 15 km/h 45 % 0 mm
14:48 -4.1 °C -11 °C 34327.3 hPa ESE 23.3 km/h 23.3 km/h 46 % 0 mm
14:53 -4.2 °C -11.1 °C 34327.3 hPa East 15.6 km/h 15.6 km/h 46 % 0 mm
14:58 -4.2 °C -11.3 °C 34327.3 hPa ENE 20.9 km/h 20.9 km/h 45 % 0 mm
15:03 -4.2 °C -11.4 °C 34327.3 hPa SE 23.8 km/h 23.8 km/h 44 % 0 mm
15:08 -4.2 °C -11.7 °C 34293.4 hPa ESE 23.8 km/h 23.8 km/h 43 % 0 mm
15:18 -4 °C -11.3 °C 34293.4 hPa ESE 23.8 km/h 23.8 km/h 44 % 0 mm
15:23 -3.9 °C -11.2 °C 34293.4 hPa East 23.8 km/h 23.8 km/h 44 % 0 mm
15:28 -4.1 °C -11.6 °C 34293.4 hPa South 17.9 km/h 17.9 km/h 43 % 0 mm
15:33 -4.1 °C -11.7 °C 34293.4 hPa ESE 26.9 km/h 26.9 km/h 42 % 0 mm
15:38 -4.1 °C -11.7 °C 34256.2 hPa SE 26.9 km/h 26.9 km/h 42 % 0 mm
15:43 -4.1 °C -11.7 °C 34256.2 hPa ESE 29.8 km/h 29.8 km/h 42 % 0 mm
15:48 -4 °C -11.7 °C 34256.2 hPa NNW 20.9 km/h 20.9 km/h 42 % 0 mm
15:53 -3.9 °C -11.4 °C 34256.2 hPa South 23.8 km/h 23.8 km/h 43 % 0 mm
15:58 -3.8 °C -11.7 °C 34256.2 hPa ESE 20.9 km/h 20.9 km/h 41 % 0 mm
16:03 -4.1 °C -11.8 °C 34256.2 hPa ENE 29.8 km/h 29.8 km/h 42 % 0 mm
16:08 -3.9 °C -11.6 °C 34256.2 hPa ENE 23.8 km/h 23.8 km/h 42 % 0 mm
16:13 -3.9 °C -11.8 °C 34256.2 hPa East 22.5 km/h 22.5 km/h 41 % 0 mm
16:18 -4 °C -11.8 °C 34256.2 hPa East 32.8 km/h 32.8 km/h 41 % 0 mm
16:23 -4.1 °C -11.7 °C 34256.2 hPa SE 26.9 km/h 26.9 km/h 42 % 0 mm
16:28 -3.9 °C -11.6 °C 34256.2 hPa ESE 41.7 km/h 41.7 km/h 42 % 0 mm
16:33 -4.1 °C -11.7 °C 34256.2 hPa ENE 26.9 km/h 26.9 km/h 42 % 0 mm
16:38 -4 °C -11.8 °C 34256.2 hPa ESE 31.9 km/h 31.9 km/h 41 % 0 mm
16:43 -3.9 °C -11.8 °C 34256.2 hPa ESE 29.8 km/h 29.8 km/h 41 % 0 mm
16:48 -3.8 °C -11.9 °C 34256.2 hPa ENE 15 km/h 15 km/h 40 % 0 mm
16:53 -3.8 °C -12.1 °C 34256.2 hPa ESE 20.9 km/h 20.9 km/h 39 % 0 mm
16:58 -3.9 °C -12.2 °C 34256.2 hPa SE 20.9 km/h 20.9 km/h 39 % 0 mm
17:03 -3.9 °C -12 °C 34256.2 hPa ESE 26.9 km/h 26.9 km/h 40 % 0 mm
17:08 -3.8 °C -11.9 °C 34256.2 hPa SSE 20.9 km/h 20.9 km/h 40 % 0 mm
17:13 -3.9 °C -12 °C 34256.2 hPa ESE 15 km/h 17.9 km/h 40 % 0 mm
17:18 -3.7 °C -11.6 °C 34256.2 hPa East 9 km/h 9 km/h 41 % 0 mm
17:23 -3.8 °C -11.7 °C 34256.2 hPa ESE 23.8 km/h 23.8 km/h 41 % 0 mm
17:28 -3.9 °C -11.8 °C 34256.2 hPa NE 15 km/h 15.3 km/h 41 % 0 mm
17:33 -4 °C -11.7 °C 34256.2 hPa ENE 17.9 km/h 19.6 km/h 42 % 0 mm
17:38 -4.1 °C -11.8 °C 34256.2 hPa SE 23.8 km/h 23.8 km/h 42 % 0 mm
17:43 -4.1 °C -11.7 °C 34256.2 hPa East 17.9 km/h 17.9 km/h 42 % 0 mm
17:48 -4.1 °C -11.8 °C 34256.2 hPa East 15 km/h 15 km/h 42 % 0 mm
17:53 -4.2 °C -11.8 °C 34256.2 hPa East 26.9 km/h 26.9 km/h 42 % 0 mm
17:58 -4.4 °C -12 °C 34256.2 hPa East 35.7 km/h 35.7 km/h 42 % 0 mm
18:03 -4.4 °C -12.1 °C 34256.2 hPa South 15 km/h 15 km/h 42 % 0 mm
18:08 -4.5 °C -12.1 °C 34256.2 hPa East 18.3 km/h 18.3 km/h 42 % 0 mm
18:13 -4.6 °C -12.2 °C 34256.2 hPa ENE 15 km/h 15 km/h 42 % 0 mm
18:18 -4.5 °C -11.9 °C 34256.2 hPa SSW 14 km/h 14 km/h 43 % 0 mm
18:23 -4.4 °C -11.8 °C 34256.2 hPa ESE 15 km/h 15 km/h 43 % 0 mm
18:33 -4.7 °C -12.1 °C 34256.2 hPa East 15 km/h 15 km/h 43 % 0 mm
18:38 -4.7 °C -12.1 °C 34256.2 hPa NNW 11.9 km/h 12.2 km/h 43 % 0 mm
18:48 -4.9 °C -12.1 °C 34256.2 hPa ESE 17.9 km/h 17.9 km/h 44 % 0 mm
18:53 -5 °C -12 °C 34256.2 hPa East 23.8 km/h 23.8 km/h 45 % 0 mm
18:58 -5.1 °C -11.9 °C 34256.2 hPa ESE 17.9 km/h 17.9 km/h 46 % 0 mm
19:03 -5.1 °C -11.9 °C 34256.2 hPa East 20.9 km/h 20.9 km/h 46 % 0 mm
19:08 -5.2 °C -12 °C 34256.2 hPa SSE 23.8 km/h 23.8 km/h 46 % 0 mm
19:13 -5.2 °C -11.8 °C 34256.2 hPa ESE 15 km/h 15 km/h 47 % 0 mm
19:18 -5.4 °C -12 °C 34256.2 hPa ESE 16.1 km/h 16.1 km/h 47 % 0 mm
19:20 -8.7 °C -11.9 °C 34361.1 hPa Calm     68 % 0 mm
19:23 -5.4 °C -12.1 °C 34256.2 hPa ESE 16.6 km/h 16.6 km/h 47 % 0 mm
19:28 -5.4 °C -11.8 °C 34256.2 hPa ESE 23.8 km/h 23.8 km/h 48 % 0 mm
19:30 -8.7 °C -12 °C 34361.1 hPa Calm     68 % 0 mm
19:33 -5.5 °C -11.9 °C 34293.4 hPa ESE 6.3 km/h 8.5 km/h 48 % 0 mm
19:38 -5.6 °C -12 °C 34293.4 hPa East 20.9 km/h 20.9 km/h 48 % 0 mm
19:40 -8.8 °C -12.1 °C 34395 hPa Calm     68 % 0 mm
19:43 -5.7 °C -11.9 °C 34293.4 hPa ESE 18.3 km/h 18.3 km/h 49 % 0 mm
19:48 -5.8 °C -12 °C 34327.3 hPa ESE 23.8 km/h 23.8 km/h 49 % 0 mm
19:50 -8.9 °C -12.2 °C 34361.1 hPa Calm   2.6 km/h 68 % 0 mm
19:53 -5.9 °C -12.1 °C 34327.3 hPa East 19.2 km/h 19.2 km/h 49 % 0 mm
20:04 -6.2 °C -12.1 °C 34327.3 hPa ESE 20.9 km/h 20.9 km/h 51 % 0 mm
20:09 -6.3 °C -12.2 °C 34327.3 hPa ENE 20.9 km/h 20.9 km/h 51 % 0 mm
20:10 -9 °C -12.2 °C 34395 hPa Calm   2.6 km/h 69 % 0 mm
20:14 -6.4 °C -12.2 °C 34327.3 hPa SE 11.9 km/h 11.9 km/h 51 % 0 mm
20:19 -6.4 °C -12.3 °C 34293.4 hPa ENE 15 km/h 15 km/h 51 % 0 mm
20:20 -9.1 °C -12.1 °C 34361.1 hPa Calm     70 % 0 mm
20:24 -6.6 °C -12.2 °C 34293.4 hPa ESE 17.9 km/h 17.9 km/h 52 % 0 mm
20:29 -6.6 °C -12.3 °C 34293.4 hPa ESE 16.1 km/h 16.1 km/h 52 % 0 mm
20:30 -9.2 °C -12.2 °C 34361.1 hPa Calm     70 % 0 mm
20:34 -6.7 °C -12.4 °C 34327.3 hPa ESE 15 km/h 15 km/h 52 % 0 mm
20:39 -6.8 °C -12.3 °C 34327.3 hPa East 15 km/h 15 km/h 53 % 0 mm
20:40 -9.2 °C -12.1 °C 34361.1 hPa Calm     71 % 0 mm
20:44 -6.9 °C -12.3 °C 34327.3 hPa East 15 km/h 15 km/h 53 % 0 mm
20:49 -6.9 °C -12.4 °C 34327.3 hPa ESE 15 km/h 15 km/h 53 % 0 mm
20:50 -9.2 °C -12.1 °C 34361.1 hPa NW 2.6 km/h 5.1 km/h 71 % 0 mm
20:54 -7.1 °C -12.3 °C 34327.3 hPa ESE 9 km/h 9 km/h 54 % 0 mm
20:59 -7.1 °C -12.4 °C 34327.3 hPa SE 11.9 km/h 11.9 km/h 54 % 0 mm
21:00 -9.2 °C -12.1 °C 34361.1 hPa ENE 2.6 km/h 5.1 km/h 71 % 0 mm
21:04 -7.2 °C -12.4 °C 34327.3 hPa East 11.9 km/h 11.9 km/h 54 % 0 mm
21:09 -7.2 °C -12.5 °C 34327.3 hPa ESE 14 km/h 14 km/h 54 % 0 mm
21:10 -9.3 °C -12.1 °C 34361.1 hPa ENE 2.6 km/h 5.1 km/h 72 % 0 mm
21:14 -7.3 °C -12.3 °C 34327.3 hPa ESE 9 km/h 9 km/h 56 % 0 mm
21:19 -7.4 °C -12.4 °C 34327.3 hPa ESE 15 km/h 15 km/h 56 % 0 mm
21:20 -9.3 °C -12.1 °C 34361.1 hPa NE 2.6 km/h 2.6 km/h 72 % 0 mm
21:24 -7.4 °C -12.3 °C 34327.3 hPa ESE 9 km/h 9 km/h 57 % 0 mm
21:29 -7.5 °C -12.3 °C 34327.3 hPa East 11.9 km/h 11.9 km/h 57 % 0 mm
21:30 -9.4 °C -12.2 °C 34361.1 hPa Calm     72 % 0 mm
21:34 -7.6 °C -12.3 °C 34327.3 hPa SE 15 km/h 15 km/h 58 % 0 mm
21:39 -7.7 °C -12.3 °C 34327.3 hPa ENE 15.3 km/h 15.3 km/h 58 % 0 mm
21:40 -9.5 °C -12.3 °C 34361.1 hPa Calm     72 % 0 mm
21:44 -7.7 °C -12.3 °C 34327.3 hPa WSW 11.9 km/h 11.9 km/h 59 % 0 mm
21:49 -7.8 °C -12.3 °C 34361.1 hPa ENE 20.9 km/h 20.9 km/h 59 % 0 mm
21:50 -9.6 °C -12.3 °C 34361.1 hPa Calm     73 % 0 mm
21:54 -7.8 °C -12.2 °C 34361.1 hPa ENE 6 km/h 6 km/h 60 % 0 mm
21:59 -7.8 °C -12.2 °C 34361.1 hPa East 9 km/h 9 km/h 60 % 0 mm
22:00 -9.7 °C -12.3 °C 34361.1 hPa Calm     73 % 0 mm
22:04 -7.9 °C -12.1 °C 34361.1 hPa ENE 6 km/h 6 km/h 61 % 0 mm
22:09 -7.9 °C -12.1 °C 34361.1 hPa ENE 11.9 km/h 11.9 km/h 61 % 0 mm
22:10 -9.7 °C -12.4 °C 34361.1 hPa Calm     73 % 0 mm
22:14 -7.9 °C -12.1 °C 34361.1 hPa East 11.9 km/h 11.9 km/h 62 % 0 mm
22:19 -8 °C -12.1 °C 34361.1 hPa ENE 11.9 km/h 11.9 km/h 62 % 0 mm
22:20 -9.7 °C -12.2 °C 34327.3 hPa Calm   2.6 km/h 74 % 0 mm
22:24 -8 °C -12.1 °C 34361.1 hPa ESE 14 km/h 14 km/h 62 % 0 mm
22:29 -8 °C -12.1 °C 34361.1 hPa ENE 6.8 km/h 6.8 km/h 62 % 0 mm
22:34 -8.1 °C -12 °C 34361.1 hPa ESE 9 km/h   63 % 0 mm
22:40 -9.7 °C -12.3 °C 34327.3 hPa Calm   5.1 km/h 74 % 0 mm
22:44 -8.1 °C -12.1 °C 34361.1 hPa NE 9 km/h 9 km/h 63 % 0 mm
22:49 -8.1 °C -12.1 °C 34361.1 hPa NE 5.6 km/h 5.6 km/h 63 % 0 mm
22:50 -9.8 °C -12.4 °C 34327.3 hPa Calm     74 % 0 mm
22:54 -8.2 °C -12 °C 34361.1 hPa East 3.1 km/h 3.7 km/h 64 % 0 mm
22:59 -8.2 °C -12.1 °C 34361.1 hPa ENE 3.1 km/h 3.1 km/h 64 % 0 mm
23:00 -9.8 °C -12.3 °C 34327.3 hPa NE 2.6 km/h 2.6 km/h 75 % 0 mm
23:04 -8.2 °C -12.1 °C 34361.1 hPa ENE 3.1 km/h 3.1 km/h 64 % 0 mm
23:09 -8.3 °C -12 °C 34361.1 hPa NNE 3.1 km/h 3.1 km/h 65 % 0 mm
23:10 -9.9 °C -12.3 °C 34361.1 hPa NE 2.6 km/h 2.6 km/h 75 % 0 mm
23:14 -8.3 °C -12 °C 34361.1 hPa NNE 2.3 km/h   65 % 0 mm
23:19 -8.3 °C -12 °C 34361.1 hPa Calm     65 % 0 mm
23:20 -9.9 °C -12.3 °C 34327.3 hPa ENE 2.6 km/h 5.1 km/h 75 % 0 mm
23:24 -8.4 °C -11.9 °C 34361.1 hPa Calm     66 % 0 mm
23:29 -8.4 °C -11.9 °C 34361.1 hPa Calm     67 % 0 mm
23:30 -10 °C -12.6 °C 34327.3 hPa ENE 2.6 km/h 5.1 km/h 74 % 0 mm
23:34 -8.4 °C -11.9 °C 34395 hPa Calm     67 % 0 mm
23:39 -8.5 °C -11.9 °C 34395 hPa Calm     67 % 0 mm
23:40 -10.1 °C -12.4 °C 34327.3 hPa SSW 2.6 km/h 2.6 km/h 76 % 0 mm
23:44 -8.5 °C -11.9 °C 34395 hPa Calm     67 % 0 mm
23:49 -8.6 °C -12 °C 34361.1 hPa NW 3.1 km/h   67 % 0 mm
23:50 -10.2 °C -12.6 °C 34327.3 hPa SSW 2.6 km/h 2.6 km/h 75 % 0 mm
23:54 -8.6 °C -12.1 °C 34361.1 hPa Calm     66 % 0 mm
23:59 -8.6 °C -12 °C 34361.1 hPa NW 3.1 km/h   67 % 0 mm
Meteo Sesrovires
Elogis d' Weather Underground - 3.5 mb

Guio original per  Jim McMurry - jmcmurry@mwt.net Adaptat per a la plantilla per  Wim van der Kuil - Leuven-Template.eu

Trobareu la nostra informacio del temps tambe a:

Weather Underground

AWEKAS